createdAt,value
2023-05-10T00:01:33.712Z,98709.03
2023-05-10T00:04:00.992Z,98702.91
2023-05-10T00:06:28.899Z,98697.56
2023-05-10T00:08:56.208Z,98695.91
2023-05-10T00:11:23.703Z,98694.03
2023-05-10T00:13:50.922Z,98696.72
2023-05-10T00:16:18.424Z,98694.28
2023-05-10T00:18:45.680Z,98688.09
2023-05-10T00:21:13.250Z,98694.28
2023-05-10T00:23:40.719Z,98695.28
2023-05-10T00:26:08.489Z,98696.31
2023-05-10T00:28:35.789Z,98687.28
2023-05-10T00:31:03.468Z,98696.31
2023-05-10T00:33:30.738Z,98690.97
2023-05-10T00:35:58.214Z,98691.78
2023-05-10T00:38:25.528Z,98690.16
2023-05-10T00:40:53.041Z,98685.63
2023-05-10T00:43:20.250Z,98689.31
2023-05-10T00:45:48.169Z,98674.34
2023-05-10T00:48:15.544Z,98687.50
2023-05-10T00:50:43.125Z,98682.34
2023-05-10T00:53:11.182Z,98677.00
2023-05-10T00:55:38.901Z,98672.69
2023-05-10T00:58:06.622Z,98675.34
2023-05-10T01:00:34.967Z,98675.34
2023-05-10T01:03:03.570Z,98670.03
2023-05-10T01:05:31.213Z,98674.53
2023-05-10T01:07:58.480Z,98670.25
2023-05-10T01:10:26.966Z,98672.06
2023-05-10T01:12:54.673Z,98672.91
2023-05-10T01:15:22.951Z,98666.72
2023-05-10T01:17:50.474Z,98665.09
2023-05-10T01:20:18.602Z,98670.44
2023-05-10T01:23:23.988Z,98658.09
2023-05-10T01:26:40.475Z,98663.44
2023-05-10T01:29:40.277Z,98654.63
2023-05-10T01:32:07.711Z,98661.81
2023-05-10T01:35:01.616Z,98658.09
2023-05-10T01:37:37.167Z,98656.47
2023-05-10T01:40:22.075Z,98650.31
2023-05-10T01:42:58.079Z,98653.81
2023-05-10T01:45:31.728Z,98645.00
2023-05-10T01:48:09.362Z,98651.13
2023-05-10T01:50:39.391Z,98649.50
2023-05-10T01:53:12.456Z,98647.84
2023-05-10T01:55:47.895Z,98648.66
2023-05-10T01:58:20.364Z,98643.56
2023-05-10T02:00:50.568Z,98646.22
2023-05-10T02:03:22.109Z,98642.72
2023-05-10T02:05:51.080Z,98639.22
2023-05-10T02:08:20.123Z,98633.88
2023-05-10T02:10:49.316Z,98630.41
2023-05-10T02:13:19.062Z,98633.88
2023-05-10T02:15:51.196Z,98627.75
2023-05-10T02:18:19.291Z,98626.94
2023-05-10T02:20:47.986Z,98626.94
2023-05-10T02:23:18.152Z,98609.28
2023-05-10T02:25:46.927Z,98622.59
2023-05-10T02:28:16.451Z,98625.28
2023-05-10T02:30:44.470Z,98612.97
2023-05-10T02:33:12.796Z,98621.97
2023-05-10T02:35:41.049Z,98612.13
2023-05-10T02:38:10.204Z,98618.31
2023-05-10T02:40:38.249Z,98612.13
2023-05-10T02:43:07.458Z,98616.66
2023-05-10T02:45:37.393Z,98615.84
2023-05-10T02:48:05.156Z,98611.31
2023-05-10T02:50:34.240Z,98621.16
2023-05-10T02:53:07.890Z,98613.34
2023-05-10T02:55:39.036Z,98613.34
2023-05-10T02:58:06.535Z,98623.19
2023-05-10T03:00:33.918Z,98608.88
2023-05-10T03:03:01.579Z,98618.69
2023-05-10T03:05:28.937Z,98616.25
2023-05-10T03:07:57.073Z,98617.06
2023-05-10T03:10:28.950Z,98620.53
2023-05-10T03:13:01.452Z,98627.72
2023-05-10T03:15:41.607Z,98620.72
2023-05-10T03:18:14.059Z,98617.06
2023-05-10T03:20:48.401Z,98620.72
2023-05-10T03:23:18.900Z,98615.38
2023-05-10T03:25:48.946Z,98612.72
2023-05-10T03:28:18.713Z,98605.78
2023-05-10T03:30:47.117Z,98613.75
2023-05-10T03:33:15.194Z,98610.28
2023-05-10T03:35:42.566Z,98610.28
2023-05-10T03:38:10.098Z,98612.94
2023-05-10T03:40:37.528Z,98612.09
2023-05-10T03:43:05.215Z,98613.75
2023-05-10T03:45:32.558Z,98610.28
2023-05-10T03:48:00.290Z,98603.09
2023-05-10T03:50:27.811Z,98606.41
2023-05-10T03:52:55.317Z,98603.72
2023-05-10T03:55:23.426Z,98614.38
2023-05-10T03:57:50.937Z,98606.41
2023-05-10T04:00:18.462Z,98618.69
2023-05-10T04:02:46.546Z,98609.69
2023-05-10T04:05:13.884Z,98609.69
2023-05-10T04:07:41.459Z,98609.28
2023-05-10T04:10:09.258Z,98608.47
2023-05-10T04:12:36.964Z,98607.25
2023-05-10T04:15:04.689Z,98612.19
2023-05-10T04:17:32.413Z,98619.16
2023-05-10T04:19:59.758Z,98614.84
2023-05-10T04:22:28.620Z,98613.00
2023-05-10T04:24:55.855Z,98619.16
2023-05-10T04:27:23.444Z,98625.13
2023-05-10T04:29:51.662Z,98617.94
2023-05-10T04:32:19.988Z,98625.75
2023-05-10T04:34:47.676Z,98622.03
2023-05-10T04:37:15.338Z,98614.03
2023-05-10T04:39:42.699Z,98623.69
2023-05-10T04:42:10.333Z,98621.22
2023-05-10T04:44:37.694Z,98615.66
2023-05-10T04:47:05.441Z,98625.81
2023-05-10T04:49:33.227Z,98624.34
2023-05-10T04:52:00.759Z,98623.44
2023-05-10T04:54:27.996Z,98625.50
2023-05-10T04:56:56.005Z,98630.81
2023-05-10T04:59:23.367Z,98620.72
2023-05-10T05:01:50.959Z,98624.59
2023-05-10T05:04:18.317Z,98621.31
2023-05-10T05:06:45.980Z,98621.72
2023-05-10T05:09:13.225Z,98622.53
2023-05-10T05:11:41.362Z,98615.63
2023-05-10T05:14:08.751Z,98620.53
2023-05-10T05:16:36.455Z,98616.06
2023-05-10T05:19:04.108Z,98614.94
2023-05-10T05:21:33.149Z,98609.66
2023-05-10T05:24:00.854Z,98608.03
2023-05-10T05:26:28.492Z,98607.66
2023-05-10T05:28:55.905Z,98607.44
2023-05-10T05:31:23.504Z,98610.31
2023-05-10T05:33:50.827Z,98605.81
2023-05-10T05:36:18.417Z,98603.31
2023-05-10T05:38:45.995Z,98606.81
2023-05-10T05:41:13.626Z,98612.13
2023-05-10T05:43:40.901Z,98613.97
2023-05-10T05:46:09.082Z,98612.13
2023-05-10T05:48:36.823Z,98610.50
2023-05-10T05:51:07.025Z,98608.66
2023-05-10T05:53:34.649Z,98607.66
2023-05-10T05:56:02.763Z,98610.31
2023-05-10T05:58:30.079Z,98618.31
2023-05-10T06:00:58.338Z,98613.78
2023-05-10T06:03:25.722Z,98606.63
2023-05-10T06:05:53.437Z,98606.63
2023-05-10T06:08:21.289Z,98603.94
2023-05-10T06:10:48.876Z,98603.94
2023-05-10T06:13:16.537Z,98602.94
2023-05-10T06:15:44.160Z,98601.91
2023-05-10T06:18:11.480Z,98601.72
2023-05-10T06:20:39.061Z,98609.72
2023-05-10T06:23:06.368Z,98602.53
2023-05-10T06:25:33.857Z,98607.88
2023-05-10T06:28:01.292Z,98613.81
2023-05-10T06:30:29.828Z,98608.69
2023-05-10T06:32:57.997Z,98608.50
2023-05-10T06:35:26.065Z,98610.13
2023-05-10T06:37:53.713Z,98613.63
2023-05-10T06:40:21.313Z,98608.09
2023-05-10T06:42:49.289Z,98605.41
2023-05-10T06:45:17.797Z,98612.41
2023-05-10T06:47:45.513Z,98608.72
2023-05-10T06:50:13.280Z,98604.00
2023-05-10T06:52:41.554Z,98603.81
2023-05-10T06:55:09.787Z,98591.31
2023-05-10T06:57:37.148Z,98601.97
2023-05-10T07:00:05.773Z,98599.13
2023-05-10T07:02:33.416Z,98600.75
2023-05-10T07:05:03.205Z,98597.88
2023-05-10T07:07:42.544Z,98592.56
2023-05-10T07:10:10.657Z,98599.56
2023-05-10T07:12:39.356Z,98584.38
2023-05-10T07:15:07.687Z,98593.00
2023-05-10T07:17:35.048Z,98588.47
2023-05-10T07:20:04.490Z,98594.44
2023-05-10T07:22:31.755Z,98586.44
2023-05-10T07:24:59.444Z,98582.72
2023-05-10T07:27:26.781Z,98587.25
2023-05-10T07:29:54.238Z,98593.22
2023-05-10T07:32:22.549Z,98591.34
2023-05-10T07:34:50.499Z,98590.16
2023-05-10T07:37:17.830Z,98589.31
2023-05-10T07:39:45.565Z,98582.16
2023-05-10T07:42:12.841Z,98585.63
2023-05-10T07:44:40.376Z,98581.94
2023-05-10T07:47:07.667Z,98580.94
2023-05-10T07:49:35.183Z,98578.25
2023-05-10T07:52:04.401Z,98585.22
2023-05-10T07:54:32.148Z,98584.84
2023-05-10T07:57:01.375Z,98568.84
2023-05-10T07:59:28.976Z,98581.13
2023-05-10T08:01:57.119Z,98572.94
2023-05-10T08:04:25.097Z,98566.81
2023-05-10T08:06:52.409Z,98575.41
2023-05-10T08:09:24.589Z,98577.06
2023-05-10T08:11:51.950Z,98570.69
2023-05-10T08:14:19.546Z,98570.69
2023-05-10T08:16:46.892Z,98570.50
2023-05-10T08:19:14.511Z,98570.50
2023-05-10T08:21:43.345Z,98563.13
2023-05-10T08:24:11.041Z,98573.78
2023-05-10T08:26:38.496Z,98569.25
2023-05-10T08:29:06.015Z,98570.91
2023-05-10T08:31:33.340Z,98569.69
2023-05-10T08:34:01.328Z,98562.50
2023-05-10T08:36:28.652Z,98568.47
2023-05-10T08:38:57.558Z,98572.78
2023-05-10T08:41:26.823Z,98571.75
2023-05-10T08:43:55.069Z,98575.03
2023-05-10T08:46:23.900Z,98569.69
2023-05-10T08:48:53.052Z,98569.69
2023-05-10T08:51:23.465Z,98566.84
2023-05-10T08:53:51.135Z,98573.00
2023-05-10T08:56:18.883Z,98567.66
2023-05-10T08:58:46.489Z,98570.94
2023-05-10T09:01:16.120Z,98571.75
2023-05-10T09:03:44.557Z,98585.72
2023-05-10T09:06:14.325Z,98571.56
2023-05-10T09:08:43.064Z,98572.19
2023-05-10T09:11:11.371Z,98571.16
2023-05-10T09:13:38.921Z,98571.78
2023-05-10T09:16:17.482Z,98570.75
2023-05-10T09:18:48.442Z,98565.19
2023-05-10T09:21:16.069Z,98571.38
2023-05-10T09:23:48.611Z,98567.72
2023-05-10T09:26:16.346Z,98560.31
2023-05-10T09:28:55.551Z,98564.63
2023-05-10T09:31:23.005Z,98568.94
2023-05-10T09:33:51.386Z,98568.94
2023-05-10T09:36:18.825Z,98566.91
2023-05-10T09:38:53.605Z,98567.72
2023-05-10T09:41:23.466Z,98568.53
2023-05-10T09:43:51.010Z,98563.19
2023-05-10T09:46:18.383Z,98565.66
2023-05-10T09:48:47.786Z,98567.31
2023-05-10T09:51:27.782Z,98564.44
2023-05-10T09:54:11.607Z,98562.38
2023-05-10T09:56:41.352Z,98553.38
2023-05-10T09:59:11.476Z,98560.34
2023-05-10T10:01:40.116Z,98557.47
2023-05-10T10:04:10.075Z,98552.94
2023-05-10T10:06:41.166Z,98544.75
2023-05-10T10:09:09.437Z,98548.84
2023-05-10T10:11:37.829Z,98538.78
2023-05-10T10:14:06.529Z,98552.13
2023-05-10T10:16:33.928Z,98546.78
2023-05-10T10:19:01.795Z,98548.41
2023-05-10T10:21:29.242Z,98539.41
2023-05-10T10:23:56.952Z,98545.34
2023-05-10T10:26:25.038Z,98533.63
2023-05-10T10:29:17.707Z,98536.13
2023-05-10T10:32:13.046Z,98526.25
2023-05-10T10:34:41.528Z,98524.19
2023-05-10T10:37:08.933Z,98527.47
2023-05-10T10:39:37.759Z,98529.13
2023-05-10T10:42:06.106Z,98520.09
2023-05-10T10:44:34.725Z,98521.72
2023-05-10T10:47:02.536Z,98512.69
2023-05-10T10:49:38.303Z,98510.63
2023-05-10T10:52:24.333Z,98510.44
2023-05-10T10:55:01.253Z,98513.94
2023-05-10T10:57:32.084Z,98507.78
2023-05-10T11:00:21.327Z,98496.88
2023-05-10T11:02:54.780Z,98498.53
2023-05-10T11:05:36.003Z,98504.47
2023-05-10T11:08:29.259Z,98499.13
2023-05-10T11:11:04.204Z,98499.94
2023-05-10T11:13:51.640Z,98495.41
2023-05-10T11:16:26.517Z,98498.72
2023-05-10T11:19:10.491Z,98496.03
2023-05-10T11:21:52.844Z,98495.84
2023-05-10T11:24:23.471Z,98488.84
2023-05-10T11:26:52.698Z,98487.63
2023-05-10T11:29:20.909Z,98483.91
2023-05-10T11:31:49.534Z,98497.88
2023-05-10T11:34:28.762Z,98488.81
2023-05-10T11:36:57.125Z,98479.81
2023-05-10T11:39:32.553Z,98474.25
2023-05-10T11:42:00.446Z,98479.16
2023-05-10T11:44:34.317Z,98489.25
2023-05-10T11:47:02.737Z,98486.78
2023-05-10T11:49:30.747Z,98478.75
2023-05-10T11:52:08.503Z,98477.34
2023-05-10T11:54:36.219Z,98474.88
2023-05-10T11:57:03.790Z,98475.91
2023-05-10T11:59:31.541Z,98478.56
2023-05-10T12:01:59.085Z,98466.25
2023-05-10T12:04:28.800Z,98469.94
2023-05-10T12:06:56.474Z,98468.31
2023-05-10T12:11:57.943Z,98475.47
2023-05-10T12:14:29.145Z,98473.41
2023-05-10T12:16:58.424Z,98469.13
2023-05-10T12:19:25.916Z,98472.81
2023-05-10T12:21:53.308Z,98477.34
2023-05-10T12:24:22.490Z,98477.94
2023-05-10T12:26:51.140Z,98471.19
2023-05-10T12:29:20.010Z,98472.00
2023-05-10T12:31:56.662Z,98470.38
2023-05-10T12:34:27.744Z,98463.38
2023-05-10T12:36:55.946Z,98458.84
2023-05-10T12:39:23.879Z,98469.53
2023-05-10T12:41:52.921Z,98464.78
2023-05-10T12:44:20.507Z,98463.56
2023-05-10T12:46:47.888Z,98459.66
2023-05-10T12:49:15.484Z,98455.13
2023-05-10T12:51:42.940Z,98454.72
2023-05-10T12:54:10.733Z,98461.09
2023-05-10T12:56:38.117Z,98449.63
2023-05-10T12:59:05.631Z,98449.38
2023-05-10T13:01:33.358Z,98444.44
2023-05-10T13:04:01.239Z,98444.66
2023-05-10T13:06:28.541Z,98449.38
2023-05-10T13:08:56.053Z,98453.91
2023-05-10T13:11:23.387Z,98446.06
2023-05-10T13:13:50.963Z,98432.53
2023-05-10T13:16:18.288Z,98436.25
2023-05-10T13:18:45.969Z,98446.31
2023-05-10T13:21:13.257Z,98436.25
2023-05-10T13:23:40.955Z,98439.53
2023-05-10T13:26:08.168Z,98432.13
2023-05-10T13:28:35.874Z,98438.28
2023-05-10T13:31:03.139Z,98427.38
2023-05-10T13:33:30.655Z,98431.69
2023-05-10T13:35:57.926Z,98433.75
2023-05-10T13:38:25.430Z,98432.13
2023-05-10T13:40:53.809Z,98433.75
2023-05-10T13:43:21.518Z,98427.38
2023-05-10T13:45:48.723Z,98425.94
2023-05-10T13:48:16.535Z,98425.13
2023-05-10T13:50:44.259Z,98413.63
2023-05-10T13:53:11.486Z,98413.63
2023-05-10T13:55:39.248Z,98413.63
2023-05-10T13:58:06.680Z,98408.69
2023-05-10T14:00:34.468Z,98411.13
2023-05-10T14:03:01.946Z,98404.34
2023-05-10T14:05:29.850Z,98403.56
2023-05-10T14:07:57.208Z,98408.69
2023-05-10T14:10:24.925Z,98396.34
2023-05-10T14:12:52.247Z,98398.41
2023-05-10T14:15:19.951Z,98397.16
2023-05-10T14:17:47.298Z,98406.03
2023-05-10T14:20:14.964Z,98401.25
2023-05-10T14:22:42.375Z,98396.34
2023-05-10T14:25:10.341Z,98392.06
2023-05-10T14:27:37.591Z,98398.81
2023-05-10T14:30:05.718Z,98396.97
2023-05-10T14:32:33.188Z,98395.09
2023-05-10T14:35:01.116Z,98389.34
2023-05-10T14:37:28.395Z,98384.00
2023-05-10T14:39:55.892Z,98388.50
2023-05-10T14:42:23.127Z,98387.69
2023-05-10T14:44:50.630Z,98382.56
2023-05-10T14:47:17.827Z,98387.69
2023-05-10T14:49:45.463Z,98390.16
2023-05-10T14:52:13.264Z,98391.78
2023-05-10T14:54:41.412Z,98382.75
2023-05-10T14:57:08.769Z,98388.72
2023-05-10T14:59:36.518Z,98387.66
2023-05-10T15:02:05.251Z,98384.38
2023-05-10T15:04:33.261Z,98387.91
2023-05-10T15:07:01.533Z,98392.41
2023-05-10T15:09:29.647Z,98386.44
2023-05-10T15:11:57.153Z,98384.81
2023-05-10T15:14:25.162Z,98390.16
2023-05-10T15:16:52.479Z,98384.81
2023-05-10T15:19:21.057Z,98384.81
2023-05-10T15:21:48.360Z,98380.50
2023-05-10T15:24:16.009Z,98380.72
2023-05-10T15:26:43.228Z,98378.25
2023-05-10T15:29:11.238Z,98379.31
2023-05-10T15:31:40.556Z,98373.97
2023-05-10T15:34:08.226Z,98383.00
2023-05-10T15:36:35.466Z,98378.69
2023-05-10T15:39:03.948Z,98384.03
2023-05-10T15:41:31.329Z,98379.72
2023-05-10T15:44:02.372Z,98382.38
2023-05-10T15:46:29.954Z,98380.75
2023-05-10T15:49:00.464Z,98380.75
2023-05-10T15:51:27.734Z,98380.75
2023-05-10T15:54:06.624Z,98380.75
2023-05-10T15:56:35.751Z,98383.44
2023-05-10T15:59:04.026Z,98380.97
2023-05-10T16:01:32.431Z,98388.16
2023-05-10T16:04:00.967Z,98386.50
2023-05-10T16:06:28.387Z,98391.84
2023-05-10T16:08:56.465Z,98384.06
2023-05-10T16:11:23.817Z,98393.72
2023-05-10T16:13:51.514Z,98394.97
2023-05-10T16:16:18.848Z,98395.97
2023-05-10T16:18:46.536Z,98397.63
2023-05-10T16:21:13.923Z,98391.47
2023-05-10T16:23:41.411Z,98395.16
2023-05-10T16:26:08.843Z,98401.31
2023-05-10T16:28:36.447Z,98388.19
2023-05-10T16:31:03.837Z,98399.69
2023-05-10T16:33:31.553Z,98391.88
2023-05-10T16:35:59.094Z,98398.03
2023-05-10T16:38:26.868Z,98396.41
2023-05-10T16:40:54.189Z,98396.41
2023-05-10T16:43:23.980Z,98405.44
2023-05-10T16:45:52.784Z,98400.94
2023-05-10T16:48:20.441Z,98400.09
2023-05-10T16:50:48.224Z,98403.00
2023-05-10T16:53:16.193Z,98409.16
2023-05-10T16:55:43.429Z,98407.53
2023-05-10T16:58:11.113Z,98406.69
2023-05-10T17:00:38.393Z,98405.88
2023-05-10T17:03:06.184Z,98415.72
2023-05-10T17:05:34.531Z,98409.56
2023-05-10T17:08:02.297Z,98419.41
2023-05-10T17:10:29.729Z,98418.59
2023-05-10T17:12:57.339Z,98420.47
2023-05-10T17:15:24.797Z,98415.31
2023-05-10T17:17:52.865Z,98420.66
2023-05-10T17:20:20.791Z,98436.69
2023-05-10T17:22:49.056Z,98429.72
2023-05-10T17:25:16.973Z,98433.19
2023-05-10T17:27:44.999Z,98432.38
2023-05-10T17:30:13.989Z,98436.06
2023-05-10T17:32:42.285Z,98430.97
2023-05-10T17:35:09.983Z,98426.44
2023-05-10T17:37:37.727Z,98440.78
2023-05-10T17:40:07.450Z,98433.81
2023-05-10T17:42:35.130Z,98444.50
2023-05-10T17:45:02.691Z,98440.19
2023-05-10T17:47:30.476Z,98444.50
2023-05-10T17:49:58.012Z,98442.84
2023-05-10T17:52:26.068Z,98454.56
2023-05-10T17:54:53.611Z,98450.03
2023-05-10T17:57:22.494Z,98457.25
2023-05-10T17:59:50.133Z,98465.44
2023-05-10T18:02:18.040Z,98458.25
2023-05-10T18:04:46.072Z,98464.63
2023-05-10T18:07:13.912Z,98463.81
2023-05-10T18:09:41.351Z,98466.69
2023-05-10T18:12:08.959Z,98469.38
2023-05-10T18:14:40.940Z,98479.22
2023-05-10T18:17:09.940Z,98472.03
2023-05-10T18:19:37.435Z,98470.41
2023-05-10T18:22:05.503Z,98473.06
2023-05-10T18:27:05.853Z,98481.28
2023-05-10T18:29:33.299Z,98487.63
2023-05-10T18:32:00.982Z,98487.63
2023-05-10T18:34:28.788Z,98493.81
2023-05-10T18:36:56.678Z,98497.50
2023-05-10T18:39:24.424Z,98502.84
2023-05-10T18:41:52.381Z,98498.53
2023-05-10T18:44:21.987Z,98501.22
2023-05-10T18:46:54.115Z,98506.56
2023-05-10T18:49:21.760Z,98517.22
2023-05-10T18:51:49.755Z,98509.22
2023-05-10T18:54:17.405Z,98510.22
2023-05-10T18:56:45.725Z,98515.56
2023-05-10T18:59:14.047Z,98517.22
2023-05-10T19:01:42.162Z,98515.56
2023-05-10T19:04:09.675Z,98526.25
2023-05-10T19:06:37.321Z,98526.25
2023-05-10T19:09:04.942Z,98526.25
2023-05-10T19:11:34.435Z,98524.63
2023-05-10T19:14:02.358Z,98527.28
2023-05-10T19:16:30.584Z,98529.97
2023-05-10T19:18:58.277Z,98535.31
2023-05-10T19:21:26.829Z,98536.13
2023-05-10T19:23:55.310Z,98531.78
2023-05-10T19:26:23.307Z,98535.31
2023-05-10T19:28:52.145Z,98533.63
2023-05-10T19:31:21.314Z,98534.69
2023-05-10T19:33:49.073Z,98532.00
2023-05-10T19:36:16.714Z,98533.63
2023-05-10T19:38:44.008Z,98536.53
2023-05-10T19:41:12.935Z,98545.34
2023-05-10T19:43:41.754Z,98533.88
2023-05-10T19:46:09.973Z,98542.69
2023-05-10T19:48:37.783Z,98533.03
2023-05-10T19:51:08.506Z,98541.03
2023-05-10T19:53:37.640Z,98540.22
2023-05-10T19:56:06.710Z,98541.03
2023-05-10T19:58:34.413Z,98534.88
2023-05-10T20:01:02.663Z,98539.41
2023-05-10T20:03:30.282Z,98545.56
2023-05-10T20:05:57.892Z,98545.56
2023-05-10T20:08:25.159Z,98537.75
2023-05-10T20:10:53.051Z,98541.25
2023-05-10T20:13:20.577Z,98548.41
2023-05-10T20:15:48.160Z,98544.13
2023-05-10T20:18:15.867Z,98544.94
2023-05-10T20:20:43.413Z,98546.78
2023-05-10T20:23:10.711Z,98544.13
2023-05-10T20:25:38.221Z,98542.47
2023-05-10T20:28:05.864Z,98543.50
2023-05-10T20:30:33.501Z,98547.81
2023-05-10T20:33:00.851Z,98538.97
2023-05-10T20:35:28.504Z,98543.50
2023-05-10T20:37:55.761Z,98541.03
2023-05-10T20:40:23.467Z,98542.69
2023-05-10T20:42:53.905Z,98545.56
2023-05-10T20:45:21.424Z,98547.19
2023-05-10T20:47:48.842Z,98544.75
2023-05-10T20:50:17.033Z,98555.41
2023-05-10T20:52:44.620Z,98551.94
2023-05-10T20:55:12.744Z,98549.25
2023-05-10T20:57:40.037Z,98546.59
2023-05-10T21:00:09.369Z,98550.28
2023-05-10T21:02:36.980Z,98550.28
2023-05-10T21:05:05.318Z,98549.66
2023-05-10T21:07:32.856Z,98545.13
2023-05-10T21:10:00.490Z,98552.31
2023-05-10T21:12:27.856Z,98554.19
2023-05-10T21:14:55.542Z,98543.50
2023-05-10T21:17:22.860Z,98550.69
2023-05-10T21:19:50.734Z,98553.38
2023-05-10T21:22:18.058Z,98557.84
2023-05-10T21:24:45.628Z,98546.38
2023-05-10T21:27:13.356Z,98552.53
2023-05-10T21:29:41.061Z,98557.03
2023-05-10T21:32:08.490Z,98555.41
2023-05-10T21:34:36.087Z,98549.22
2023-05-10T21:37:03.388Z,98554.56
2023-05-10T21:39:30.995Z,98564.44
2023-05-10T21:41:59.725Z,98552.94
2023-05-10T21:44:27.294Z,98559.09
2023-05-10T21:46:54.768Z,98558.28
2023-05-10T21:49:22.283Z,98559.09
2023-05-10T21:51:51.198Z,98562.81
2023-05-10T21:54:18.997Z,98561.13
2023-05-10T21:56:46.383Z,98561.13
2023-05-10T21:59:14.296Z,98565.66
2023-05-10T22:01:43.623Z,98564.84
2023-05-10T22:04:11.220Z,98564.84
2023-05-10T22:06:38.570Z,98564.84
2023-05-10T22:09:06.513Z,98556.84
2023-05-10T22:11:34.424Z,98561.38
2023-05-10T22:14:01.947Z,98563.19
2023-05-10T22:16:29.376Z,98569.38
2023-05-10T22:18:56.950Z,98566.09
2023-05-10T22:21:24.208Z,98572.25
2023-05-10T22:23:51.815Z,98569.56
2023-05-10T22:26:19.040Z,98569.56
2023-05-10T22:28:46.564Z,98573.25
2023-05-10T22:31:14.636Z,98578.59
2023-05-10T22:33:42.301Z,98575.09
2023-05-10T22:36:09.792Z,98575.09
2023-05-10T22:38:37.562Z,98584.97
2023-05-10T22:41:04.859Z,98580.44
2023-05-10T22:43:32.575Z,98584.97
2023-05-10T22:45:59.843Z,98588.63
2023-05-10T22:48:28.881Z,98578.81
2023-05-10T22:50:56.227Z,98583.31
2023-05-10T22:53:24.312Z,98585.97
2023-05-10T22:55:52.575Z,98589.66
2023-05-10T22:58:20.041Z,98587.00
2023-05-10T23:00:47.341Z,98596.06
2023-05-10T23:03:15.219Z,98600.34
2023-05-10T23:05:42.434Z,98599.53
2023-05-10T23:08:09.990Z,98601.38
2023-05-10T23:10:38.344Z,98599.72
2023-05-10T23:13:07.837Z,98594.38
2023-05-10T23:15:36.227Z,98596.06
2023-05-10T23:18:05.861Z,98605.88
2023-05-10T23:20:33.286Z,98596.41
2023-05-10T23:23:00.852Z,98599.72
2023-05-10T23:25:28.143Z,98597.06
2023-05-10T23:27:55.624Z,98595.41
2023-05-10T23:30:22.914Z,98593.75
2023-05-10T23:32:50.493Z,98596.41
2023-05-10T23:35:17.750Z,98594.78
2023-05-10T23:37:45.361Z,98591.25
2023-05-10T23:40:14.062Z,98600.13
2023-05-10T23:42:41.582Z,98605.44
2023-05-10T23:45:09.113Z,98602.97
2023-05-10T23:47:36.783Z,98601.94
2023-05-10T23:50:05.669Z,98602.97
2023-05-10T23:52:33.527Z,98595.78
2023-05-10T23:55:00.888Z,98595.97
2023-05-10T23:57:28.387Z,98602.97
2023-05-10T23:59:56.065Z,98593.31
